sensor_id;sensor_type;location;lat;lon;timestamp;temperature;humidity
25933;DHT22;13731;51.166;4.474;2023-04-01T00:00:53;10.00;99.90
25933;DHT22;13731;51.166;4.474;2023-04-01T00:03:20;10.00;99.90
25933;DHT22;13731;51.166;4.474;2023-04-01T00:05:46;10.00;99.90
25933;DHT22;13731;51.166;4.474;2023-04-01T00:08:12;10.00;99.90
25933;DHT22;13731;51.166;4.474;2023-04-01T00:10:38;10.00;99.90
25933;DHT22;13731;51.166;4.474;2023-04-01T00:13:05;10.10;99.90
25933;DHT22;13731;51.166;4.474;2023-04-01T00:15:31;10.00;99.90
25933;DHT22;13731;51.166;4.474;2023-04-01T00:17:57;10.00;99.90
25933;DHT22;13731;51.166;4.474;2023-04-01T00:20:23;10.00;99.90
25933;DHT22;13731;51.166;4.474;2023-04-01T00:22:49;10.10;99.90
25933;DHT22;13731;51.166;4.474;2023-04-01T00:25:15;10.20;99.90
25933;DHT22;13731;51.166;4.474;2023-04-01T00:27:41;10.20;99.90
25933;DHT22;13731;51.166;4.474;2023-04-01T00:30:08;10.10;99.90
25933;DHT22;13731;51.166;4.474;2023-04-01T00:32:34;10.10;99.90
25933;DHT22;13731;51.166;4.474;2023-04-01T00:35:01;10.10;99.90
25933;DHT22;13731;51.166;4.474;2023-04-01T00:37:28;10.20;99.90
25933;DHT22;13731;51.166;4.474;2023-04-01T00:39:54;10.10;99.90
25933;DHT22;13731;51.166;4.474;2023-04-01T00:42:20;10.10;99.90
25933;DHT22;13731;51.166;4.474;2023-04-01T00:44:52;10.00;99.90
25933;DHT22;13731;51.166;4.474;2023-04-01T00:47:18;10.00;99.90
25933;DHT22;13731;51.166;4.474;2023-04-01T00:49:48;10.10;99.90
25933;DHT22;13731;51.166;4.474;2023-04-01T00:52:21;10.10;99.90
25933;DHT22;13731;51.166;4.474;2023-04-01T00:54:50;10.10;99.90
25933;DHT22;13731;51.166;4.474;2023-04-01T00:57:23;10.10;99.90
25933;DHT22;13731;51.166;4.474;2023-04-01T00:59:53;10.00;99.90
25933;DHT22;13731;51.166;4.474;2023-04-01T01:02:22;10.10;99.90
25933;DHT22;13731;51.166;4.474;2023-04-01T01:04:48;10.20;99.90
25933;DHT22;13731;51.166;4.474;2023-04-01T01:10:17;10.10;99.90
25933;DHT22;13731;51.166;4.474;2023-04-01T01:13:10;10.20;99.90
25933;DHT22;13731;51.166;4.474;2023-04-01T01:15:41;10.30;99.90
25933;DHT22;13731;51.166;4.474;2023-04-01T01:18:37;10.10;99.90
25933;DHT22;13731;51.166;4.474;2023-04-01T01:34:45;10.10;99.90
25933;DHT22;13731;51.166;4.474;2023-04-01T01:37:50;10.10;99.90
25933;DHT22;13731;51.166;4.474;2023-04-01T01:40:18;10.00;99.90
25933;DHT22;13731;51.166;4.474;2023-04-01T01:42:48;10.10;99.90
25933;DHT22;13731;51.166;4.474;2023-04-01T01:45:19;10.20;99.90
25933;DHT22;13731;51.166;4.474;2023-04-01T01:47:47;10.10;99.90
25933;DHT22;13731;51.166;4.474;2023-04-01T01:50:16;10.10;99.90
25933;DHT22;13731;51.166;4.474;2023-04-01T01:52:42;10.10;99.90
25933;DHT22;13731;51.166;4.474;2023-04-01T01:55:26;10.10;99.90
25933;DHT22;13731;51.166;4.474;2023-04-01T01:57:55;10.20;99.90
25933;DHT22;13731;51.166;4.474;2023-04-01T02:00:23;10.10;99.90
25933;DHT22;13731;51.166;4.474;2023-04-01T02:02:50;10.10;99.90
25933;DHT22;13731;51.166;4.474;2023-04-01T02:05:19;10.00;99.90
25933;DHT22;13731;51.166;4.474;2023-04-01T02:07:52;10.00;99.90
25933;DHT22;13731;51.166;4.474;2023-04-01T02:10:22;10.00;99.90
25933;DHT22;13731;51.166;4.474;2023-04-01T02:12:51;10.10;99.90
25933;DHT22;13731;51.166;4.474;2023-04-01T02:15:20;10.00;99.90
25933;DHT22;13731;51.166;4.474;2023-04-01T02:17:49;10.00;99.90
25933;DHT22;13731;51.166;4.474;2023-04-01T02:20:20;10.00;99.90
25933;DHT22;13731;51.166;4.474;2023-04-01T02:22:55;10.00;99.90
25933;DHT22;13731;51.166;4.474;2023-04-01T02:25:33;10.00;99.90
25933;DHT22;13731;51.166;4.474;2023-04-01T02:28:02;9.90;99.90
25933;DHT22;13731;51.166;4.474;2023-04-01T02:30:32;9.80;99.90
25933;DHT22;13731;51.166;4.474;2023-04-01T02:32:59;9.80;99.90
25933;DHT22;13731;51.166;4.474;2023-04-01T02:35:26;9.80;99.90
25933;DHT22;13731;51.166;4.474;2023-04-01T02:37:54;9.70;99.90
25933;DHT22;13731;51.166;4.474;2023-04-01T02:40:20;9.70;99.90
25933;DHT22;13731;51.166;4.474;2023-04-01T02:42:46;9.70;99.90
25933;DHT22;13731;51.166;4.474;2023-04-01T02:45:13;9.80;99.90
25933;DHT22;13731;51.166;4.474;2023-04-01T02:47:40;9.70;99.90
25933;DHT22;13731;51.166;4.474;2023-04-01T02:50:07;9.70;99.90
25933;DHT22;13731;51.166;4.474;2023-04-01T02:52:34;9.70;99.90
25933;DHT22;13731;51.166;4.474;2023-04-01T02:55:02;9.60;99.90
25933;DHT22;13731;51.166;4.474;2023-04-01T02:57:29;9.60;99.90
25933;DHT22;13731;51.166;4.474;2023-04-01T02:59:55;9.60;99.90
25933;DHT22;13731;51.166;4.474;2023-04-01T03:02:21;9.60;99.90
25933;DHT22;13731;51.166;4.474;2023-04-01T03:04:47;9.60;99.90
25933;DHT22;13731;51.166;4.474;2023-04-01T03:07:13;9.70;99.90
25933;DHT22;13731;51.166;4.474;2023-04-01T03:09:39;9.70;99.90
25933;DHT22;13731;51.166;4.474;2023-04-01T03:12:06;9.80;99.90
25933;DHT22;13731;51.166;4.474;2023-04-01T03:14:43;9.70;99.90
25933;DHT22;13731;51.166;4.474;2023-04-01T03:17:09;9.80;99.90
25933;DHT22;13731;51.166;4.474;2023-04-01T03:19:35;9.70;99.90
25933;DHT22;13731;51.166;4.474;2023-04-01T03:22:05;9.70;99.90
25933;DHT22;13731;51.166;4.474;2023-04-01T03:24:31;9.70;99.90
25933;DHT22;13731;51.166;4.474;2023-04-01T03:26:57;9.70;99.90
25933;DHT22;13731;51.166;4.474;2023-04-01T03:29:23;9.70;99.90
25933;DHT22;13731;51.166;4.474;2023-04-01T03:31:49;9.70;99.90
25933;DHT22;13731;51.166;4.474;2023-04-01T03:34:15;9.80;99.90
25933;DHT22;13731;51.166;4.474;2023-04-01T03:36:41;9.80;99.90
25933;DHT22;13731;51.166;4.474;2023-04-01T03:39:07;9.70;99.90
25933;DHT22;13731;51.166;4.474;2023-04-01T03:41:39;9.70;99.90
25933;DHT22;13731;51.166;4.474;2023-04-01T03:44:06;9.70;99.90
25933;DHT22;13731;51.166;4.474;2023-04-01T03:46:32;9.70;99.90
25933;DHT22;13731;51.166;4.474;2023-04-01T03:48:58;9.70;99.90
25933;DHT22;13731;51.166;4.474;2023-04-01T03:51:24;9.80;99.90
25933;DHT22;13731;51.166;4.474;2023-04-01T03:53:51;10.00;99.90
25933;DHT22;13731;51.166;4.474;2023-04-01T03:56:16;9.80;99.90
25933;DHT22;13731;51.166;4.474;2023-04-01T03:58:43;9.70;99.90
25933;DHT22;13731;51.166;4.474;2023-04-01T04:01:18;9.80;99.90
25933;DHT22;13731;51.166;4.474;2023-04-01T04:03:45;9.70;99.90
25933;DHT22;13731;51.166;4.474;2023-04-01T04:06:13;9.70;99.90
25933;DHT22;13731;51.166;4.474;2023-04-01T04:08:39;9.60;99.90
25933;DHT22;13731;51.166;4.474;2023-04-01T04:11:06;9.60;99.90
25933;DHT22;13731;51.166;4.474;2023-04-01T04:13:34;9.60;99.90
25933;DHT22;13731;51.166;4.474;2023-04-01T04:16:02;9.70;99.90
25933;DHT22;13731;51.166;4.474;2023-04-01T04:18:29;9.80;99.90
25933;DHT22;13731;51.166;4.474;2023-04-01T04:20:55;9.80;99.90
25933;DHT22;13731;51.166;4.474;2023-04-01T04:23:21;9.80;99.90
25933;DHT22;13731;51.166;4.474;2023-04-01T04:28:21;9.70;99.90
25933;DHT22;13731;51.166;4.474;2023-04-01T04:30:47;9.60;99.90
25933;DHT22;13731;51.166;4.474;2023-04-01T04:33:13;9.60;99.90
25933;DHT22;13731;51.166;4.474;2023-04-01T04:35:39;9.60;99.90
25933;DHT22;13731;51.166;4.474;2023-04-01T04:38:05;9.60;99.90
25933;DHT22;13731;51.166;4.474;2023-04-01T04:40:32;9.70;99.90
25933;DHT22;13731;51.166;4.474;2023-04-01T04:42:58;9.70;99.90
25933;DHT22;13731;51.166;4.474;2023-04-01T04:45:24;9.70;99.90
25933;DHT22;13731;51.166;4.474;2023-04-01T04:47:54;9.60;99.90
25933;DHT22;13731;51.166;4.474;2023-04-01T04:50:20;9.60;99.90
25933;DHT22;13731;51.166;4.474;2023-04-01T04:52:46;9.70;99.90
25933;DHT22;13731;51.166;4.474;2023-04-01T04:55:12;9.70;99.90
25933;DHT22;13731;51.166;4.474;2023-04-01T04:57:39;9.70;99.90
25933;DHT22;13731;51.166;4.474;2023-04-01T05:00:05;9.80;99.90
25933;DHT22;13731;51.166;4.474;2023-04-01T05:02:44;9.70;99.90
25933;DHT22;13731;51.166;4.474;2023-04-01T05:05:10;9.60;99.90
25933;DHT22;13731;51.166;4.474;2023-04-01T05:07:36;9.60;99.90
25933;DHT22;13731;51.166;4.474;2023-04-01T05:10:03;9.60;99.90
25933;DHT22;13731;51.166;4.474;2023-04-01T05:12:29;9.70;99.90
25933;DHT22;13731;51.166;4.474;2023-04-01T05:15:00;9.70;99.90
25933;DHT22;13731;51.166;4.474;2023-04-01T05:17:26;9.70;99.90
25933;DHT22;13731;51.166;4.474;2023-04-01T05:19:52;9.60;99.90
25933;DHT22;13731;51.166;4.474;2023-04-01T05:22:19;9.50;99.90
25933;DHT22;13731;51.166;4.474;2023-04-01T05:24:45;9.50;99.90
25933;DHT22;13731;51.166;4.474;2023-04-01T05:27:12;9.60;99.90
25933;DHT22;13731;51.166;4.474;2023-04-01T05:29:40;9.50;99.90
25933;DHT22;13731;51.166;4.474;2023-04-01T05:32:09;9.50;99.90
25933;DHT22;13731;51.166;4.474;2023-04-01T05:34:35;9.60;99.90
25933;DHT22;13731;51.166;4.474;2023-04-01T05:37:01;9.70;99.90
25933;DHT22;13731;51.166;4.474;2023-04-01T05:39:27;9.60;99.90
25933;DHT22;13731;51.166;4.474;2023-04-01T05:41:53;9.60;99.90
25933;DHT22;13731;51.166;4.474;2023-04-01T05:44:19;9.50;99.90
25933;DHT22;13731;51.166;4.474;2023-04-01T05:46:48;9.50;99.90
25933;DHT22;13731;51.166;4.474;2023-04-01T05:49:20;9.50;99.90
25933;DHT22;13731;51.166;4.474;2023-04-01T05:51:49;9.50;99.90
25933;DHT22;13731;51.166;4.474;2023-04-01T05:54:17;9.50;99.90
25933;DHT22;13731;51.166;4.474;2023-04-01T05:56:44;9.60;99.90
25933;DHT22;13731;51.166;4.474;2023-04-01T05:59:11;9.60;99.90
25933;DHT22;13731;51.166;4.474;2023-04-01T06:01:37;9.50;99.90
25933;DHT22;13731;51.166;4.474;2023-04-01T06:04:03;9.60;99.90
25933;DHT22;13731;51.166;4.474;2023-04-01T06:06:30;9.50;99.90
25933;DHT22;13731;51.166;4.474;2023-04-01T06:09:21;9.60;99.90
25933;DHT22;13731;51.166;4.474;2023-04-01T06:29:26;9.60;99.90
25933;DHT22;13731;51.166;4.474;2023-04-01T06:35:01;9.60;99.90
25933;DHT22;13731;51.166;4.474;2023-04-01T06:49:33;9.50;99.90
25933;DHT22;13731;51.166;4.474;2023-04-01T06:56:07;9.70;99.90
25933;DHT22;13731;51.166;4.474;2023-04-01T06:58:37;9.70;99.90
25933;DHT22;13731;51.166;4.474;2023-04-01T07:01:10;9.80;99.90
25933;DHT22;13731;51.166;4.474;2023-04-01T07:03:44;9.80;99.90
25933;DHT22;13731;51.166;4.474;2023-04-01T07:06:31;9.80;99.90
25933;DHT22;13731;51.166;4.474;2023-04-01T07:09:02;9.80;99.90
25933;DHT22;13731;51.166;4.474;2023-04-01T07:11:53;9.90;99.90
25933;DHT22;13731;51.166;4.474;2023-04-01T07:14:41;9.90;99.90
25933;DHT22;13731;51.166;4.474;2023-04-01T07:17:22;9.80;99.90
25933;DHT22;13731;51.166;4.474;2023-04-01T07:20:02;9.70;99.90
25933;DHT22;13731;51.166;4.474;2023-04-01T07:22:38;9.60;99.90
25933;DHT22;13731;51.166;4.474;2023-04-01T07:26:00;9.60;99.90
25933;DHT22;13731;51.166;4.474;2023-04-01T07:28:31;9.70;99.90
25933;DHT22;13731;51.166;4.474;2023-04-01T07:31:18;9.70;99.90
25933;DHT22;13731;51.166;4.474;2023-04-01T07:53:45;9.90;99.90
25933;DHT22;13731;51.166;4.474;2023-04-01T07:56:22;9.80;99.90
25933;DHT22;13731;51.166;4.474;2023-04-01T08:04:45;9.90;99.90
25933;DHT22;13731;51.166;4.474;2023-04-01T08:07:20;10.00;99.90
25933;DHT22;13731;51.166;4.474;2023-04-01T08:21:28;9.80;99.90
25933;DHT22;13731;51.166;4.474;2023-04-01T08:24:04;9.80;99.90
25933;DHT22;13731;51.166;4.474;2023-04-01T08:26:40;9.90;99.90
25933;DHT22;13731;51.166;4.474;2023-04-01T08:29:18;10.00;99.90
25933;DHT22;13731;51.166;4.474;2023-04-01T08:32:00;10.10;99.90
25933;DHT22;13731;51.166;4.474;2023-04-01T08:34:39;10.10;99.90
25933;DHT22;13731;51.166;4.474;2023-04-01T08:37:16;10.10;99.90
25933;DHT22;13731;51.166;4.474;2023-04-01T08:39:48;10.20;99.90
25933;DHT22;13731;51.166;4.474;2023-04-01T08:45:44;10.00;99.90
25933;DHT22;13731;51.166;4.474;2023-04-01T09:08:03;10.30;99.90
25933;DHT22;13731;51.166;4.474;2023-04-01T09:11:04;10.30;99.90
25933;DHT22;13731;51.166;4.474;2023-04-01T09:14:09;10.20;99.90
25933;DHT22;13731;51.166;4.474;2023-04-01T09:25:13;10.10;99.90
25933;DHT22;13731;51.166;4.474;2023-04-01T09:28:02;10.20;99.90
25933;DHT22;13731;51.166;4.474;2023-04-01T09:33:40;10.30;99.90
25933;DHT22;13731;51.166;4.474;2023-04-01T09:44:37;10.70;99.90
25933;DHT22;13731;51.166;4.474;2023-04-01T09:52:49;10.60;99.90
25933;DHT22;13731;51.166;4.474;2023-04-01T10:18:42;10.70;99.90
25933;DHT22;13731;51.166;4.474;2023-04-01T10:38:20;10.40;99.90
25933;DHT22;13731;51.166;4.474;2023-04-01T10:41:05;10.50;99.90
25933;DHT22;13731;51.166;4.474;2023-04-01T10:50:13;10.40;99.90
25933;DHT22;13731;51.166;4.474;2023-04-01T10:59:42;10.40;99.90
25933;DHT22;13731;51.166;4.474;2023-04-01T11:05:49;10.70;99.90
25933;DHT22;13731;51.166;4.474;2023-04-01T11:17:13;10.50;99.90
25933;DHT22;13731;51.166;4.474;2023-04-01T11:34:38;10.40;99.90
25933;DHT22;13731;51.166;4.474;2023-04-01T11:44:26;10.40;99.90
25933;DHT22;13731;51.166;4.474;2023-04-01T11:49:59;10.60;99.90
25933;DHT22;13731;51.166;4.474;2023-04-01T12:04:54;10.70;99.90
25933;DHT22;13731;51.166;4.474;2023-04-01T12:10:18;10.70;99.90
25933;DHT22;13731;51.166;4.474;2023-04-01T12:16:11;11.00;99.90
25933;DHT22;13731;51.166;4.474;2023-04-01T12:24:51;11.10;99.90
25933;DHT22;13731;51.166;4.474;2023-04-01T12:30:18;11.10;99.90
25933;DHT22;13731;51.166;4.474;2023-04-01T12:52:43;10.90;99.90
25933;DHT22;13731;51.166;4.474;2023-04-01T12:55:35;10.80;99.90
25933;DHT22;13731;51.166;4.474;2023-04-01T13:01:23;10.70;99.90
25933;DHT22;13731;51.166;4.474;2023-04-01T13:07:28;10.70;99.90
25933;DHT22;13731;51.166;4.474;2023-04-01T13:09:57;10.80;99.90
25933;DHT22;13731;51.166;4.474;2023-04-01T13:15:37;10.80;99.90
25933;DHT22;13731;51.166;4.474;2023-04-01T13:23:55;10.80;99.90
25933;DHT22;13731;51.166;4.474;2023-04-01T13:26:35;10.90;99.90
25933;DHT22;13731;51.166;4.474;2023-04-01T13:29:10;10.80;99.90
25933;DHT22;13731;51.166;4.474;2023-04-01T13:35:23;10.70;99.90
25933;DHT22;13731;51.166;4.474;2023-04-01T13:41:05;10.60;99.90
25933;DHT22;13731;51.166;4.474;2023-04-01T13:43:48;10.50;99.90
25933;DHT22;13731;51.166;4.474;2023-04-01T13:46:25;10.40;99.90
25933;DHT22;13731;51.166;4.474;2023-04-01T14:10:37;10.60;99.90
25933;DHT22;13731;51.166;4.474;2023-04-01T14:13:07;10.70;99.90
25933;DHT22;13731;51.166;4.474;2023-04-01T14:21:19;10.60;99.90
25933;DHT22;13731;51.166;4.474;2023-04-01T14:24:14;10.90;99.90
25933;DHT22;13731;51.166;4.474;2023-04-01T14:26:54;11.00;99.90
25933;DHT22;13731;51.166;4.474;2023-04-01T14:32:12;10.90;99.90
25933;DHT22;13731;51.166;4.474;2023-04-01T14:34:55;10.90;99.90
25933;DHT22;13731;51.166;4.474;2023-04-01T14:48:50;10.90;99.90
25933;DHT22;13731;51.166;4.474;2023-04-01T14:51:33;10.90;99.90
25933;DHT22;13731;51.166;4.474;2023-04-01T14:54:16;10.90;99.90
25933;DHT22;13731;51.166;4.474;2023-04-01T14:57:04;10.80;99.90
25933;DHT22;13731;51.166;4.474;2023-04-01T14:59:30;10.80;99.90
25933;DHT22;13731;51.166;4.474;2023-04-01T15:02:07;10.70;99.90
25933;DHT22;13731;51.166;4.474;2023-04-01T15:04:46;10.80;99.90
25933;DHT22;13731;51.166;4.474;2023-04-01T15:12:58;10.60;99.90
25933;DHT22;13731;51.166;4.474;2023-04-01T15:26:54;10.30;99.90
25933;DHT22;13731;51.166;4.474;2023-04-01T15:29:34;10.20;99.90
25933;DHT22;13731;51.166;4.474;2023-04-01T15:35:19;10.40;99.90
25933;DHT22;13731;51.166;4.474;2023-04-01T15:40:36;10.20;99.90
25933;DHT22;13731;51.166;4.474;2023-04-01T15:43:17;10.10;99.90
25933;DHT22;13731;51.166;4.474;2023-04-01T15:45:49;10.10;99.90
25933;DHT22;13731;51.166;4.474;2023-04-01T15:51:30;10.00;99.90
25933;DHT22;13731;51.166;4.474;2023-04-01T15:59:44;9.90;99.90
25933;DHT22;13731;51.166;4.474;2023-04-01T16:02:38;10.00;99.90
25933;DHT22;13731;51.166;4.474;2023-04-01T16:18:48;9.90;99.90
25933;DHT22;13731;51.166;4.474;2023-04-01T16:26:30;10.00;99.90
25933;DHT22;13731;51.166;4.474;2023-04-01T16:34:27;10.00;99.90
25933;DHT22;13731;51.166;4.474;2023-04-01T16:47:23;10.00;99.90
25933;DHT22;13731;51.166;4.474;2023-04-01T16:50:06;10.10;99.90
25933;DHT22;13731;51.166;4.474;2023-04-01T17:01:07;10.00;99.90
25933;DHT22;13731;51.166;4.474;2023-04-01T17:03:45;10.00;99.90
25933;DHT22;13731;51.166;4.474;2023-04-01T17:06:19;10.10;99.90
25933;DHT22;13731;51.166;4.474;2023-04-01T17:11:44;9.90;99.90
25933;DHT22;13731;51.166;4.474;2023-04-01T17:14:40;10.10;99.90
25933;DHT22;13731;51.166;4.474;2023-04-01T17:20:02;10.30;99.90
25933;DHT22;13731;51.166;4.474;2023-04-01T17:25:37;10.10;99.90
25933;DHT22;13731;51.166;4.474;2023-04-01T17:28:11;10.10;99.90
25933;DHT22;13731;51.166;4.474;2023-04-01T17:36:43;10.00;99.90
25933;DHT22;13731;51.166;4.474;2023-04-01T17:42:12;9.70;99.90
25933;DHT22;13731;51.166;4.474;2023-04-01T17:50:55;9.80;99.90
25933;DHT22;13731;51.166;4.474;2023-04-01T18:05:26;9.80;99.90
25933;DHT22;13731;51.166;4.474;2023-04-01T18:08:40;9.80;99.90
25933;DHT22;13731;51.166;4.474;2023-04-01T18:14:07;10.00;99.90
25933;DHT22;13731;51.166;4.474;2023-04-01T18:24:56;9.80;99.90
25933;DHT22;13731;51.166;4.474;2023-04-01T18:27:27;9.80;99.90
25933;DHT22;13731;51.166;4.474;2023-04-01T18:38:40;9.70;99.90
25933;DHT22;13731;51.166;4.474;2023-04-01T18:41:25;9.70;99.90
25933;DHT22;13731;51.166;4.474;2023-04-01T18:49:52;9.80;99.90
25933;DHT22;13731;51.166;4.474;2023-04-01T18:52:34;9.90;99.90
25933;DHT22;13731;51.166;4.474;2023-04-01T18:57:47;9.80;99.90
25933;DHT22;13731;51.166;4.474;2023-04-01T19:00:22;9.90;99.90
25933;DHT22;13731;51.166;4.474;2023-04-01T19:05:52;10.00;99.90
25933;DHT22;13731;51.166;4.474;2023-04-01T19:25:23;10.30;99.90
25933;DHT22;13731;51.166;4.474;2023-04-01T19:27:55;10.50;99.90
25933;DHT22;13731;51.166;4.474;2023-04-01T19:39:09;10.60;99.90
25933;DHT22;13731;51.166;4.474;2023-04-01T19:53:59;10.60;99.90
25933;DHT22;13731;51.166;4.474;2023-04-01T19:56:43;10.80;99.90
25933;DHT22;13731;51.166;4.474;2023-04-01T19:59:31;10.80;99.90
25933;DHT22;13731;51.166;4.474;2023-04-01T20:04:44;10.60;99.90
25933;DHT22;13731;51.166;4.474;2023-04-01T20:07:43;10.70;99.90
25933;DHT22;13731;51.166;4.474;2023-04-01T20:10:17;10.70;99.90
25933;DHT22;13731;51.166;4.474;2023-04-01T20:15:34;10.70;99.90
25933;DHT22;13731;51.166;4.474;2023-04-01T20:18:05;10.70;99.90
25933;DHT22;13731;51.166;4.474;2023-04-01T20:20:37;10.60;99.90
25933;DHT22;13731;51.166;4.474;2023-04-01T20:25:58;10.60;99.90
25933;DHT22;13731;51.166;4.474;2023-04-01T20:29:05;10.50;99.90
25933;DHT22;13731;51.166;4.474;2023-04-01T20:31:36;10.50;99.90
25933;DHT22;13731;51.166;4.474;2023-04-01T20:34:22;10.50;99.90
25933;DHT22;13731;51.166;4.474;2023-04-01T20:48:02;10.60;99.90
25933;DHT22;13731;51.166;4.474;2023-04-01T20:50:52;10.50;99.90
25933;DHT22;13731;51.166;4.474;2023-04-01T20:53:53;10.60;99.90
25933;DHT22;13731;51.166;4.474;2023-04-01T21:04:50;10.20;99.90
25933;DHT22;13731;51.166;4.474;2023-04-01T21:16:08;10.40;99.90
25933;DHT22;13731;51.166;4.474;2023-04-01T21:24:26;10.40;99.90
25933;DHT22;13731;51.166;4.474;2023-04-01T21:32:51;10.30;99.90
25933;DHT22;13731;51.166;4.474;2023-04-01T21:35:25;10.40;99.90
25933;DHT22;13731;51.166;4.474;2023-04-01T21:38:04;10.20;99.90
25933;DHT22;13731;51.166;4.474;2023-04-01T21:40:48;10.20;99.90
25933;DHT22;13731;51.166;4.474;2023-04-01T21:45:58;9.90;99.90
25933;DHT22;13731;51.166;4.474;2023-04-01T22:02:48;9.80;99.90
25933;DHT22;13731;51.166;4.474;2023-04-01T22:13:39;10.00;99.90
25933;DHT22;13731;51.166;4.474;2023-04-01T22:16:23;9.90;99.90
25933;DHT22;13731;51.166;4.474;2023-04-01T22:27:00;9.80;99.90
25933;DHT22;13731;51.166;4.474;2023-04-01T22:29:38;9.50;99.90
25933;DHT22;13731;51.166;4.474;2023-04-01T22:32:25;9.50;99.90
25933;DHT22;13731;51.166;4.474;2023-04-01T22:35:17;9.40;99.90
25933;DHT22;13731;51.166;4.474;2023-04-01T22:43:43;9.40;99.90
25933;DHT22;13731;51.166;4.474;2023-04-01T22:46:34;9.50;99.90
25933;DHT22;13731;51.166;4.474;2023-04-01T22:49:09;9.40;99.90
25933;DHT22;13731;51.166;4.474;2023-04-01T22:52:12;9.40;99.90
25933;DHT22;13731;51.166;4.474;2023-04-01T23:02:42;9.50;99.90
25933;DHT22;13731;51.166;4.474;2023-04-01T23:05:15;9.20;99.90
25933;DHT22;13731;51.166;4.474;2023-04-01T23:10:29;9.30;99.90
25933;DHT22;13731;51.166;4.474;2023-04-01T23:12:58;9.20;99.90
25933;DHT22;13731;51.166;4.474;2023-04-01T23:15:27;9.30;99.90
25933;DHT22;13731;51.166;4.474;2023-04-01T23:29:15;9.20;99.90
25933;DHT22;13731;51.166;4.474;2023-04-01T23:31:46;8.90;99.90
25933;DHT22;13731;51.166;4.474;2023-04-01T23:36:50;8.70;99.90
25933;DHT22;13731;51.166;4.474;2023-04-01T23:39:28;8.70;99.90
25933;DHT22;13731;51.166;4.474;2023-04-01T23:41:58;8.70;99.90
25933;DHT22;13731;51.166;4.474;2023-04-01T23:44:27;9.00;99.90
25933;DHT22;13731;51.166;4.474;2023-04-01T23:46:54;8.90;99.90
25933;DHT22;13731;51.166;4.474;2023-04-01T23:49:34;8.80;99.90
25933;DHT22;13731;51.166;4.474;2023-04-01T23:52:23;8.80;99.90
25933;DHT22;13731;51.166;4.474;2023-04-01T23:57:32;8.80;99.90
